sensor_id;sensor_type;location;lat;lon;timestamp;temperature;humidity
3528;DHT22;1778;47.966;7.854;2022-12-18T00:00:59;-5.60;99.90
3528;DHT22;1778;47.966;7.854;2022-12-18T00:02:01;-5.60;99.90
3528;DHT22;1778;47.966;7.854;2022-12-18T00:03:03;-5.60;99.90
3528;DHT22;1778;47.966;7.854;2022-12-18T00:04:06;-5.60;99.90
3528;DHT22;1778;47.966;7.854;2022-12-18T00:05:09;-5.70;99.90
3528;DHT22;1778;47.966;7.854;2022-12-18T00:06:11;-5.80;99.90
3528;DHT22;1778;47.966;7.854;2022-12-18T00:07:14;-5.70;99.90
3528;DHT22;1778;47.966;7.854;2022-12-18T00:08:16;-5.80;99.90
3528;DHT22;1778;47.966;7.854;2022-12-18T00:09:19;-5.80;99.90
3528;DHT22;1778;47.966;7.854;2022-12-18T00:10:20;-5.80;99.90
3528;DHT22;1778;47.966;7.854;2022-12-18T00:11:24;-5.90;99.90
3528;DHT22;1778;47.966;7.854;2022-12-18T00:12:26;-5.90;99.90
3528;DHT22;1778;47.966;7.854;2022-12-18T00:13:30;-6.00;99.90
3528;DHT22;1778;47.966;7.854;2022-12-18T00:14:33;-6.00;99.90
3528;DHT22;1778;47.966;7.854;2022-12-18T00:15:35;-6.00;99.90
3528;DHT22;1778;47.966;7.854;2022-12-18T00:16:38;-6.10;99.90
3528;DHT22;1778;47.966;7.854;2022-12-18T00:17:39;-6.20;99.90
3528;DHT22;1778;47.966;7.854;2022-12-18T00:18:41;-6.30;99.90
3528;DHT22;1778;47.966;7.854;2022-12-18T00:19:43;-6.30;99.90
3528;DHT22;1778;47.966;7.854;2022-12-18T00:20:44;-6.40;99.90
3528;DHT22;1778;47.966;7.854;2022-12-18T00:21:46;-6.40;99.90
3528;DHT22;1778;47.966;7.854;2022-12-18T00:22:48;-6.40;99.90
3528;DHT22;1778;47.966;7.854;2022-12-18T00:23:50;-6.40;99.90
3528;DHT22;1778;47.966;7.854;2022-12-18T00:24:51;-6.40;99.90
3528;DHT22;1778;47.966;7.854;2022-12-18T00:25:53;-6.50;99.90
3528;DHT22;1778;47.966;7.854;2022-12-18T00:26:54;-6.50;99.90
3528;DHT22;1778;47.966;7.854;2022-12-18T00:27:56;-6.40;99.90
3528;DHT22;1778;47.966;7.854;2022-12-18T00:29:17;-6.50;99.90
3528;DHT22;1778;47.966;7.854;2022-12-18T00:30:18;-6.50;99.90
3528;DHT22;1778;47.966;7.854;2022-12-18T00:31:22;-6.60;99.90
3528;DHT22;1778;47.966;7.854;2022-12-18T00:32:26;-6.70;99.90
3528;DHT22;1778;47.966;7.854;2022-12-18T00:33:28;-6.70;99.90
3528;DHT22;1778;47.966;7.854;2022-12-18T00:34:29;-6.70;99.90
3528;DHT22;1778;47.966;7.854;2022-12-18T00:35:31;-6.70;99.90
3528;DHT22;1778;47.966;7.854;2022-12-18T00:36:48;-6.70;99.90
3528;DHT22;1778;47.966;7.854;2022-12-18T00:37:50;-6.70;99.90
3528;DHT22;1778;47.966;7.854;2022-12-18T00:38:53;-6.70;99.90
3528;DHT22;1778;47.966;7.854;2022-12-18T00:39:55;-6.70;99.90
3528;DHT22;1778;47.966;7.854;2022-12-18T00:40:56;-6.70;99.90
3528;DHT22;1778;47.966;7.854;2022-12-18T00:41:58;-6.80;99.90
3528;DHT22;1778;47.966;7.854;2022-12-18T00:43:19;-6.80;99.90
3528;DHT22;1778;47.966;7.854;2022-12-18T00:44:20;-6.90;99.90
3528;DHT22;1778;47.966;7.854;2022-12-18T00:45:26;-6.90;99.90
3528;DHT22;1778;47.966;7.854;2022-12-18T00:46:28;-6.90;99.90
3528;DHT22;1778;47.966;7.854;2022-12-18T00:47:30;-7.00;99.90
3528;DHT22;1778;47.966;7.854;2022-12-18T00:48:32;-7.00;99.90
3528;DHT22;1778;47.966;7.854;2022-12-18T00:49:34;-7.10;99.90
3528;DHT22;1778;47.966;7.854;2022-12-18T00:50:35;-7.10;99.90
3528;DHT22;1778;47.966;7.854;2022-12-18T00:51:37;-7.10;99.90
3528;DHT22;1778;47.966;7.854;2022-12-18T00:52:40;-7.10;99.90
3528;DHT22;1778;47.966;7.854;2022-12-18T00:53:42;-7.10;99.90
3528;DHT22;1778;47.966;7.854;2022-12-18T00:54:43;-7.10;99.90
3528;DHT22;1778;47.966;7.854;2022-12-18T00:55:45;-7.10;99.90
3528;DHT22;1778;47.966;7.854;2022-12-18T00:56:47;-7.20;99.90
3528;DHT22;1778;47.966;7.854;2022-12-18T00:57:51;-7.20;99.90
3528;DHT22;1778;47.966;7.854;2022-12-18T00:58:53;-7.20;99.90
3528;DHT22;1778;47.966;7.854;2022-12-18T00:59:55;-7.20;99.90
3528;DHT22;1778;47.966;7.854;2022-12-18T01:00:57;-7.20;99.90
3528;DHT22;1778;47.966;7.854;2022-12-18T01:01:58;-7.20;99.90
3528;DHT22;1778;47.966;7.854;2022-12-18T01:03:00;-7.20;99.90
3528;DHT22;1778;47.966;7.854;2022-12-18T01:04:02;-7.20;99.90
3528;DHT22;1778;47.966;7.854;2022-12-18T01:05:04;-7.20;99.90
3528;DHT22;1778;47.966;7.854;2022-12-18T01:06:11;-7.20;99.90
3528;DHT22;1778;47.966;7.854;2022-12-18T01:07:12;-7.20;99.90
3528;DHT22;1778;47.966;7.854;2022-12-18T01:08:14;-7.20;99.90
3528;DHT22;1778;47.966;7.854;2022-12-18T01:09:17;-7.20;99.90
3528;DHT22;1778;47.966;7.854;2022-12-18T01:10:19;-7.10;99.90
3528;DHT22;1778;47.966;7.854;2022-12-18T01:11:21;-7.10;99.90
3528;DHT22;1778;47.966;7.854;2022-12-18T01:12:23;-7.10;99.90
3528;DHT22;1778;47.966;7.854;2022-12-18T01:13:24;-7.10;99.90
3528;DHT22;1778;47.966;7.854;2022-12-18T01:14:26;-7.10;99.90
3528;DHT22;1778;47.966;7.854;2022-12-18T01:15:27;-7.10;99.90
3528;DHT22;1778;47.966;7.854;2022-12-18T01:16:29;-7.10;99.90
3528;DHT22;1778;47.966;7.854;2022-12-18T01:17:30;-7.10;99.90
3528;DHT22;1778;47.966;7.854;2022-12-18T01:18:35;-7.10;99.90
3528;DHT22;1778;47.966;7.854;2022-12-18T01:19:37;-7.10;99.90
3528;DHT22;1778;47.966;7.854;2022-12-18T01:20:38;-7.00;99.90
3528;DHT22;1778;47.966;7.854;2022-12-18T01:21:40;-7.00;99.90
3528;DHT22;1778;47.966;7.854;2022-12-18T01:22:41;-7.10;99.90
3528;DHT22;1778;47.966;7.854;2022-12-18T01:23:46;-7.00;99.90
3528;DHT22;1778;47.966;7.854;2022-12-18T01:24:48;-7.00;99.90
3528;DHT22;1778;47.966;7.854;2022-12-18T01:25:49;-7.00;99.90
3528;DHT22;1778;47.966;7.854;2022-12-18T01:26:51;-7.00;99.90
3528;DHT22;1778;47.966;7.854;2022-12-18T01:27:52;-7.00;99.90
3528;DHT22;1778;47.966;7.854;2022-12-18T01:28:57;-7.00;99.90
3528;DHT22;1778;47.966;7.854;2022-12-18T01:29:58;-7.00;99.90
3528;DHT22;1778;47.966;7.854;2022-12-18T01:32:20;-6.90;99.90
3528;DHT22;1778;47.966;7.854;2022-12-18T01:33:23;-6.90;99.90
3528;DHT22;1778;47.966;7.854;2022-12-18T01:34:25;-6.80;99.90
3528;DHT22;1778;47.966;7.854;2022-12-18T01:35:27;-6.80;99.90
3528;DHT22;1778;47.966;7.854;2022-12-18T01:36:33;-6.90;99.90
3528;DHT22;1778;47.966;7.854;2022-12-18T01:37:35;-6.80;99.90
3528;DHT22;1778;47.966;7.854;2022-12-18T01:38:36;-6.80;99.90
3528;DHT22;1778;47.966;7.854;2022-12-18T01:39:38;-6.80;99.90
3528;DHT22;1778;47.966;7.854;2022-12-18T01:40:40;-6.80;99.90
3528;DHT22;1778;47.966;7.854;2022-12-18T01:41:42;-6.80;99.90
3528;DHT22;1778;47.966;7.854;2022-12-18T01:43:04;-6.70;99.90
3528;DHT22;1778;47.966;7.854;2022-12-18T01:45:46;-6.60;99.90
3528;DHT22;1778;47.966;7.854;2022-12-18T01:46:47;-6.60;99.90
3528;DHT22;1778;47.966;7.854;2022-12-18T01:47:53;-6.60;99.90
3528;DHT22;1778;47.966;7.854;2022-12-18T01:49:00;-6.60;99.90
3528;DHT22;1778;47.966;7.854;2022-12-18T01:50:14;-6.60;99.90
3528;DHT22;1778;47.966;7.854;2022-12-18T01:51:17;-6.70;99.90
3528;DHT22;1778;47.966;7.854;2022-12-18T01:52:20;-6.70;99.90
3528;DHT22;1778;47.966;7.854;2022-12-18T01:53:23;-6.70;99.90
3528;DHT22;1778;47.966;7.854;2022-12-18T01:54:28;-6.80;99.90
3528;DHT22;1778;47.966;7.854;2022-12-18T01:55:32;-6.80;99.90
3528;DHT22;1778;47.966;7.854;2022-12-18T01:56:34;-6.70;99.90
3528;DHT22;1778;47.966;7.854;2022-12-18T01:57:36;-6.70;99.90
3528;DHT22;1778;47.966;7.854;2022-12-18T01:58:55;-6.70;99.90
3528;DHT22;1778;47.966;7.854;2022-12-18T02:00:03;-6.70;99.90
3528;DHT22;1778;47.966;7.854;2022-12-18T02:01:13;-6.60;99.90
3528;DHT22;1778;47.966;7.854;2022-12-18T02:02:16;-6.70;99.90
3528;DHT22;1778;47.966;7.854;2022-12-18T02:03:19;-6.60;99.90
3528;DHT22;1778;47.966;7.854;2022-12-18T02:05:45;-6.60;99.90
3528;DHT22;1778;47.966;7.854;2022-12-18T02:06:50;-6.70;99.90
3528;DHT22;1778;47.966;7.854;2022-12-18T02:09:19;-6.80;99.90
3528;DHT22;1778;47.966;7.854;2022-12-18T02:10:28;-6.80;99.90
3528;DHT22;1778;47.966;7.854;2022-12-18T02:11:53;-6.80;99.90
3528;DHT22;1778;47.966;7.854;2022-12-18T02:14:38;-6.80;99.90
3528;DHT22;1778;47.966;7.854;2022-12-18T02:15:44;-6.80;99.90
3528;DHT22;1778;47.966;7.854;2022-12-18T02:17:02;-6.80;99.90
3528;DHT22;1778;47.966;7.854;2022-12-18T02:18:13;-6.70;99.90
3528;DHT22;1778;47.966;7.854;2022-12-18T02:20:36;-6.70;99.90
3528;DHT22;1778;47.966;7.854;2022-12-18T02:21:58;-6.70;99.90
3528;DHT22;1778;47.966;7.854;2022-12-18T02:27:13;-6.70;99.90
3528;DHT22;1778;47.966;7.854;2022-12-18T02:28:23;-6.70;99.90
3528;DHT22;1778;47.966;7.854;2022-12-18T02:29:46;-6.70;99.90
3528;DHT22;1778;47.966;7.854;2022-12-18T02:31:01;-6.70;99.90
3528;DHT22;1778;47.966;7.854;2022-12-18T02:32:08;-6.70;99.90
3528;DHT22;1778;47.966;7.854;2022-12-18T02:33:12;-6.70;99.90
3528;DHT22;1778;47.966;7.854;2022-12-18T02:34:17;-6.60;99.90
3528;DHT22;1778;47.966;7.854;2022-12-18T02:35:25;-6.50;99.90
3528;DHT22;1778;47.966;7.854;2022-12-18T02:36:32;-6.50;99.90
3528;DHT22;1778;47.966;7.854;2022-12-18T02:37:35;-6.50;99.90
3528;DHT22;1778;47.966;7.854;2022-12-18T02:38:39;-6.50;99.90
3528;DHT22;1778;47.966;7.854;2022-12-18T02:39:48;-6.60;99.90
3528;DHT22;1778;47.966;7.854;2022-12-18T02:40:51;-6.50;99.90
3528;DHT22;1778;47.966;7.854;2022-12-18T02:41:55;-6.50;99.90
3528;DHT22;1778;47.966;7.854;2022-12-18T02:43:09;-6.50;99.90
3528;DHT22;1778;47.966;7.854;2022-12-18T02:44:13;-6.40;99.90
3528;DHT22;1778;47.966;7.854;2022-12-18T02:45:16;-6.40;99.90
3528;DHT22;1778;47.966;7.854;2022-12-18T02:46:36;-6.40;99.90
3528;DHT22;1778;47.966;7.854;2022-12-18T02:47:46;-6.50;99.90
3528;DHT22;1778;47.966;7.854;2022-12-18T02:48:49;-6.50;99.90
3528;DHT22;1778;47.966;7.854;2022-12-18T02:51:37;-6.50;99.90
3528;DHT22;1778;47.966;7.854;2022-12-18T02:54:33;-6.50;99.90
3528;DHT22;1778;47.966;7.854;2022-12-18T02:57:10;-6.60;99.90
3528;DHT22;1778;47.966;7.854;2022-12-18T02:58:26;-6.60;99.90
3528;DHT22;1778;47.966;7.854;2022-12-18T02:59:47;-6.60;99.90
3528;DHT22;1778;47.966;7.854;2022-12-18T03:01:50;-6.60;99.90
3528;DHT22;1778;47.966;7.854;2022-12-18T03:03:06;-6.70;99.90
3528;DHT22;1778;47.966;7.854;2022-12-18T03:04:19;-6.70;99.90
3528;DHT22;1778;47.966;7.854;2022-12-18T03:05:27;-6.70;99.90
3528;DHT22;1778;47.966;7.854;2022-12-18T03:06:39;-6.70;99.90
3528;DHT22;1778;47.966;7.854;2022-12-18T03:08:30;-6.70;99.90
3528;DHT22;1778;47.966;7.854;2022-12-18T03:09:40;-6.70;99.90
3528;DHT22;1778;47.966;7.854;2022-12-18T03:11:05;-6.70;99.90
3528;DHT22;1778;47.966;7.854;2022-12-18T03:12:14;-6.80;99.90
3528;DHT22;1778;47.966;7.854;2022-12-18T03:13:54;-6.70;99.90
3528;DHT22;1778;47.966;7.854;2022-12-18T03:15:11;-6.70;99.90
3528;DHT22;1778;47.966;7.854;2022-12-18T03:16:26;-6.70;99.90
3528;DHT22;1778;47.966;7.854;2022-12-18T03:17:32;-6.80;99.90
3528;DHT22;1778;47.966;7.854;2022-12-18T03:19:08;-6.80;99.90
3528;DHT22;1778;47.966;7.854;2022-12-18T03:20:17;-6.70;99.90
3528;DHT22;1778;47.966;7.854;2022-12-18T03:21:26;-6.70;99.90
3528;DHT22;1778;47.966;7.854;2022-12-18T03:22:32;-6.90;99.90
3528;DHT22;1778;47.966;7.854;2022-12-18T03:23:41;-6.90;99.90
3528;DHT22;1778;47.966;7.854;2022-12-18T03:24:46;-7.00;99.90
3528;DHT22;1778;47.966;7.854;2022-12-18T03:25:52;-7.00;99.90
3528;DHT22;1778;47.966;7.854;2022-12-18T03:27:02;-7.10;99.90
3528;DHT22;1778;47.966;7.854;2022-12-18T03:28:05;-7.00;99.90
3528;DHT22;1778;47.966;7.854;2022-12-18T03:29:14;-7.00;99.90
3528;DHT22;1778;47.966;7.854;2022-12-18T03:30:18;-7.00;99.90
3528;DHT22;1778;47.966;7.854;2022-12-18T03:31:23;-7.10;99.90
3528;DHT22;1778;47.966;7.854;2022-12-18T03:32:28;-7.10;99.90
3528;DHT22;1778;47.966;7.854;2022-12-18T03:34:59;-7.20;99.90
3528;DHT22;1778;47.966;7.854;2022-12-18T03:36:05;-7.30;99.90
3528;DHT22;1778;47.966;7.854;2022-12-18T03:37:07;-7.30;99.90
3528;DHT22;1778;47.966;7.854;2022-12-18T03:38:11;-7.30;99.90
3528;DHT22;1778;47.966;7.854;2022-12-18T03:39:17;-7.40;99.90
3528;DHT22;1778;47.966;7.854;2022-12-18T03:42:21;-7.40;99.90
3528;DHT22;1778;47.966;7.854;2022-12-18T03:44:57;-7.50;99.90
3528;DHT22;1778;47.966;7.854;2022-12-18T03:46:23;-7.60;99.90
3528;DHT22;1778;47.966;7.854;2022-12-18T03:48:41;-7.70;99.90
3528;DHT22;1778;47.966;7.854;2022-12-18T03:51:00;-7.70;99.90
3528;DHT22;1778;47.966;7.854;2022-12-18T03:52:11;-7.70;99.90
3528;DHT22;1778;47.966;7.854;2022-12-18T03:53:22;-7.80;99.90
3528;DHT22;1778;47.966;7.854;2022-12-18T03:54:27;-7.80;99.90
3528;DHT22;1778;47.966;7.854;2022-12-18T03:55:38;-7.80;99.90
3528;DHT22;1778;47.966;7.854;2022-12-18T03:56:48;-7.80;99.90
3528;DHT22;1778;47.966;7.854;2022-12-18T03:57:52;-7.70;99.90
3528;DHT22;1778;47.966;7.854;2022-12-18T03:58:55;-7.80;99.90
3528;DHT22;1778;47.966;7.854;2022-12-18T04:00:10;-7.90;99.90
3528;DHT22;1778;47.966;7.854;2022-12-18T04:01:32;-7.90;99.90
3528;DHT22;1778;47.966;7.854;2022-12-18T04:02:36;-7.90;99.90
3528;DHT22;1778;47.966;7.854;2022-12-18T04:03:42;-7.90;99.90
3528;DHT22;1778;47.966;7.854;2022-12-18T04:04:47;-8.00;99.90
3528;DHT22;1778;47.966;7.854;2022-12-18T04:05:54;-8.00;99.90
3528;DHT22;1778;47.966;7.854;2022-12-18T04:06:57;-8.00;99.90
3528;DHT22;1778;47.966;7.854;2022-12-18T04:08:00;-8.00;99.90
3528;DHT22;1778;47.966;7.854;2022-12-18T04:09:04;-7.90;99.90
3528;DHT22;1778;47.966;7.854;2022-12-18T04:10:14;-7.90;99.90
3528;DHT22;1778;47.966;7.854;2022-12-18T04:11:17;-7.90;99.90
3528;DHT22;1778;47.966;7.854;2022-12-18T04:12:20;-7.90;99.90
3528;DHT22;1778;47.966;7.854;2022-12-18T04:13:24;-8.00;99.90
3528;DHT22;1778;47.966;7.854;2022-12-18T04:14:31;-8.00;99.90
3528;DHT22;1778;47.966;7.854;2022-12-18T04:15:40;-8.10;99.90
3528;DHT22;1778;47.966;7.854;2022-12-18T04:16:47;-8.10;99.90
3528;DHT22;1778;47.966;7.854;2022-12-18T04:17:50;-8.10;99.90
3528;DHT22;1778;47.966;7.854;2022-12-18T04:18:56;-8.10;99.90
3528;DHT22;1778;47.966;7.854;2022-12-18T04:19:59;-8.10;99.90
3528;DHT22;1778;47.966;7.854;2022-12-18T04:21:01;-8.10;99.90
3528;DHT22;1778;47.966;7.854;2022-12-18T04:22:03;-8.10;99.90
3528;DHT22;1778;47.966;7.854;2022-12-18T04:23:12;-8.20;99.90
3528;DHT22;1778;47.966;7.854;2022-12-18T04:24:14;-8.10;99.90
3528;DHT22;1778;47.966;7.854;2022-12-18T04:25:25;-8.20;99.90
3528;DHT22;1778;47.966;7.854;2022-12-18T04:26:38;-8.20;99.90
3528;DHT22;1778;47.966;7.854;2022-12-18T04:27:47;-8.20;99.90
3528;DHT22;1778;47.966;7.854;2022-12-18T04:28:49;-8.30;99.90
3528;DHT22;1778;47.966;7.854;2022-12-18T04:29:50;-8.30;99.90
3528;DHT22;1778;47.966;7.854;2022-12-18T04:30:53;-8.30;99.90
3528;DHT22;1778;47.966;7.854;2022-12-18T04:31:55;-8.30;99.90
3528;DHT22;1778;47.966;7.854;2022-12-18T04:32:59;-8.20;99.90
3528;DHT22;1778;47.966;7.854;2022-12-18T04:34:03;-8.30;99.90
3528;DHT22;1778;47.966;7.854;2022-12-18T04:35:11;-8.30;99.90
3528;DHT22;1778;47.966;7.854;2022-12-18T04:36:16;-8.40;99.90
3528;DHT22;1778;47.966;7.854;2022-12-18T04:37:19;-8.40;99.90
3528;DHT22;1778;47.966;7.854;2022-12-18T04:38:23;-8.40;99.90
3528;DHT22;1778;47.966;7.854;2022-12-18T04:39:33;-8.40;99.90
3528;DHT22;1778;47.966;7.854;2022-12-18T04:40:40;-8.30;99.90
3528;DHT22;1778;47.966;7.854;2022-12-18T04:41:49;-8.30;99.90
3528;DHT22;1778;47.966;7.854;2022-12-18T04:42:50;-8.30;99.90
3528;DHT22;1778;47.966;7.854;2022-12-18T04:43:52;-8.40;99.90
3528;DHT22;1778;47.966;7.854;2022-12-18T04:44:53;-8.30;99.90
3528;DHT22;1778;47.966;7.854;2022-12-18T04:46:02;-8.30;99.90
3528;DHT22;1778;47.966;7.854;2022-12-18T04:47:04;-8.30;99.90
3528;DHT22;1778;47.966;7.854;2022-12-18T04:48:05;-8.30;99.90
3528;DHT22;1778;47.966;7.854;2022-12-18T04:49:07;-8.40;99.90
3528;DHT22;1778;47.966;7.854;2022-12-18T04:50:09;-8.40;99.90
3528;DHT22;1778;47.966;7.854;2022-12-18T04:51:10;-8.40;99.90
3528;DHT22;1778;47.966;7.854;2022-12-18T04:52:13;-8.40;99.90
3528;DHT22;1778;47.966;7.854;2022-12-18T04:53:14;-8.40;99.90
3528;DHT22;1778;47.966;7.854;2022-12-18T04:54:19;-8.50;99.90
3528;DHT22;1778;47.966;7.854;2022-12-18T04:55:20;-8.50;99.90
3528;DHT22;1778;47.966;7.854;2022-12-18T04:56:27;-8.60;99.90
3528;DHT22;1778;47.966;7.854;2022-12-18T04:57:29;-8.60;99.90
3528;DHT22;1778;47.966;7.854;2022-12-18T04:58:31;-8.60;99.90
3528;DHT22;1778;47.966;7.854;2022-12-18T04:59:32;-8.60;99.90
3528;DHT22;1778;47.966;7.854;2022-12-18T05:00:33;-8.60;99.90
3528;DHT22;1778;47.966;7.854;2022-12-18T05:01:35;-8.50;99.90
3528;DHT22;1778;47.966;7.854;2022-12-18T05:02:37;-8.60;99.90
3528;DHT22;1778;47.966;7.854;2022-12-18T05:03:39;-8.50;99.90
3528;DHT22;1778;47.966;7.854;2022-12-18T05:04:41;-8.50;99.90
3528;DHT22;1778;47.966;7.854;2022-12-18T05:05:42;-8.50;99.90
3528;DHT22;1778;47.966;7.854;2022-12-18T05:06:44;-8.50;99.90
3528;DHT22;1778;47.966;7.854;2022-12-18T05:07:45;-8.50;99.90
3528;DHT22;1778;47.966;7.854;2022-12-18T05:08:47;-8.50;99.90
3528;DHT22;1778;47.966;7.854;2022-12-18T05:09:48;-8.40;99.90
3528;DHT22;1778;47.966;7.854;2022-12-18T05:11:08;-8.50;99.90
3528;DHT22;1778;47.966;7.854;2022-12-18T05:12:10;-8.50;99.90
3528;DHT22;1778;47.966;7.854;2022-12-18T05:13:12;-8.50;99.90
3528;DHT22;1778;47.966;7.854;2022-12-18T05:14:13;-8.50;99.90
3528;DHT22;1778;47.966;7.854;2022-12-18T05:15:15;-8.50;99.90
3528;DHT22;1778;47.966;7.854;2022-12-18T05:16:16;-8.50;99.90
3528;DHT22;1778;47.966;7.854;2022-12-18T05:17:18;-8.60;99.90
3528;DHT22;1778;47.966;7.854;2022-12-18T05:18:20;-8.60;99.90
3528;DHT22;1778;47.966;7.854;2022-12-18T05:19:21;-8.70;99.90
3528;DHT22;1778;47.966;7.854;2022-12-18T05:20:24;-8.70;99.90
3528;DHT22;1778;47.966;7.854;2022-12-18T05:21:25;-8.70;99.90
3528;DHT22;1778;47.966;7.854;2022-12-18T05:22:27;-8.70;99.90
3528;DHT22;1778;47.966;7.854;2022-12-18T05:23:29;-8.60;99.90
3528;DHT22;1778;47.966;7.854;2022-12-18T05:24:31;-8.60;99.90
3528;DHT22;1778;47.966;7.854;2022-12-18T05:25:32;-8.60;99.90
3528;DHT22;1778;47.966;7.854;2022-12-18T05:26:34;-8.60;99.90
3528;DHT22;1778;47.966;7.854;2022-12-18T05:27:35;-8.60;99.90
3528;DHT22;1778;47.966;7.854;2022-12-18T05:28:37;-8.60;99.90
3528;DHT22;1778;47.966;7.854;2022-12-18T05:29:38;-8.60;99.90
3528;DHT22;1778;47.966;7.854;2022-12-18T05:30:48;-8.60;99.90
3528;DHT22;1778;47.966;7.854;2022-12-18T05:31:50;-8.60;99.90
3528;DHT22;1778;47.966;7.854;2022-12-18T05:32:51;-8.50;99.90
3528;DHT22;1778;47.966;7.854;2022-12-18T05:33:54;-8.60;99.90
3528;DHT22;1778;47.966;7.854;2022-12-18T05:34:56;-8.60;99.90
3528;DHT22;1778;47.966;7.854;2022-12-18T05:36:03;-8.60;99.90
3528;DHT22;1778;47.966;7.854;2022-12-18T05:37:05;-8.60;99.90
3528;DHT22;1778;47.966;7.854;2022-12-18T05:38:07;-8.70;99.90
3528;DHT22;1778;47.966;7.854;2022-12-18T05:39:08;-8.60;99.90
3528;DHT22;1778;47.966;7.854;2022-12-18T05:40:10;-8.70;99.90
3528;DHT22;1778;47.966;7.854;2022-12-18T05:41:12;-8.70;99.90
3528;DHT22;1778;47.966;7.854;2022-12-18T05:42:13;-8.70;99.90
3528;DHT22;1778;47.966;7.854;2022-12-18T05:43:16;-8.70;99.90
3528;DHT22;1778;47.966;7.854;2022-12-18T05:44:21;-8.80;99.90
3528;DHT22;1778;47.966;7.854;2022-12-18T05:45:23;-8.70;99.90
3528;DHT22;1778;47.966;7.854;2022-12-18T05:46:24;-8.80;99.90
3528;DHT22;1778;47.966;7.854;2022-12-18T05:47:28;-8.80;99.90
3528;DHT22;1778;47.966;7.854;2022-12-18T05:48:30;-8.80;99.90
3528;DHT22;1778;47.966;7.854;2022-12-18T05:49:31;-8.80;99.90
3528;DHT22;1778;47.966;7.854;2022-12-18T05:50:40;-8.70;99.90
3528;DHT22;1778;47.966;7.854;2022-12-18T05:51:42;-8.70;99.90
3528;DHT22;1778;47.966;7.854;2022-12-18T05:52:44;-8.70;99.90
3528;DHT22;1778;47.966;7.854;2022-12-18T05:53:46;-8.60;99.90
3528;DHT22;1778;47.966;7.854;2022-12-18T05:54:47;-8.60;99.90
3528;DHT22;1778;47.966;7.854;2022-12-18T05:55:49;-8.50;99.90
3528;DHT22;1778;47.966;7.854;2022-12-18T05:56:51;-8.60;99.90
3528;DHT22;1778;47.966;7.854;2022-12-18T05:57:52;-8.60;99.90
3528;DHT22;1778;47.966;7.854;2022-12-18T05:58:54;-8.60;99.90
3528;DHT22;1778;47.966;7.854;2022-12-18T05:59:56;-8.50;99.90
3528;DHT22;1778;47.966;7.854;2022-12-18T06:00:57;-8.50;99.90
3528;DHT22;1778;47.966;7.854;2022-12-18T06:01:59;-8.40;99.90
3528;DHT22;1778;47.966;7.854;2022-12-18T06:03:01;-8.50;99.90
3528;DHT22;1778;47.966;7.854;2022-12-18T06:04:03;-8.40;99.90
3528;DHT22;1778;47.966;7.854;2022-12-18T06:05:05;-8.40;99.90
3528;DHT22;1778;47.966;7.854;2022-12-18T06:06:19;-8.40;99.90
3528;DHT22;1778;47.966;7.854;2022-12-18T06:07:20;-8.40;99.90
3528;DHT22;1778;47.966;7.854;2022-12-18T06:08:22;-8.50;99.90
3528;DHT22;1778;47.966;7.854;2022-12-18T06:09:23;-8.50;99.90
3528;DHT22;1778;47.966;7.854;2022-12-18T06:10:25;-8.60;99.90
3528;DHT22;1778;47.966;7.854;2022-12-18T06:11:27;-8.60;99.90
3528;DHT22;1778;47.966;7.854;2022-12-18T06:12:28;-8.70;99.90
3528;DHT22;1778;47.966;7.854;2022-12-18T06:13:30;-8.70;99.90
3528;DHT22;1778;47.966;7.854;2022-12-18T06:14:31;-8.70;99.90
3528;DHT22;1778;47.966;7.854;2022-12-18T06:15:35;-8.80;99.90
3528;DHT22;1778;47.966;7.854;2022-12-18T06:16:37;-8.70;99.90
3528;DHT22;1778;47.966;7.854;2022-12-18T06:17:38;-8.60;99.90
3528;DHT22;1778;47.966;7.854;2022-12-18T06:18:40;-8.70;99.90
3528;DHT22;1778;47.966;7.854;2022-12-18T06:19:42;-8.70;99.90
3528;DHT22;1778;47.966;7.854;2022-12-18T06:20:43;-8.70;99.90
3528;DHT22;1778;47.966;7.854;2022-12-18T06:21:46;-8.70;99.90
3528;DHT22;1778;47.966;7.854;2022-12-18T06:22:47;-8.60;99.90
3528;DHT22;1778;47.966;7.854;2022-12-18T06:23:50;-8.60;99.90
3528;DHT22;1778;47.966;7.854;2022-12-18T06:24:51;-8.60;99.90
3528;DHT22;1778;47.966;7.854;2022-12-18T06:25:53;-8.70;99.90
3528;DHT22;1778;47.966;7.854;2022-12-18T06:26:55;-8.70;99.90
3528;DHT22;1778;47.966;7.854;2022-12-18T06:27:56;-8.60;99.90
3528;DHT22;1778;47.966;7.854;2022-12-18T06:28:58;-8.60;99.90
3528;DHT22;1778;47.966;7.854;2022-12-18T06:30:00;-8.50;99.90
3528;DHT22;1778;47.966;7.854;2022-12-18T06:31:03;-8.50;99.90
3528;DHT22;1778;47.966;7.854;2022-12-18T06:32:06;-8.60;99.90
3528;DHT22;1778;47.966;7.854;2022-12-18T06:33:07;-8.60;99.90
3528;DHT22;1778;47.966;7.854;2022-12-18T06:34:08;-8.60;99.90
3528;DHT22;1778;47.966;7.854;2022-12-18T06:35:10;-8.60;99.90
3528;DHT22;1778;47.966;7.854;2022-12-18T06:36:13;-8.70;99.90
3528;DHT22;1778;47.966;7.854;2022-12-18T06:37:14;-8.80;99.90
3528;DHT22;1778;47.966;7.854;2022-12-18T06:38:16;-8.80;99.90
3528;DHT22;1778;47.966;7.854;2022-12-18T06:39:17;-8.70;99.90
3528;DHT22;1778;47.966;7.854;2022-12-18T06:40:19;-8.70;99.90
3528;DHT22;1778;47.966;7.854;2022-12-18T06:41:21;-8.60;99.90
3528;DHT22;1778;47.966;7.854;2022-12-18T06:42:24;-8.60;99.90
3528;DHT22;1778;47.966;7.854;2022-12-18T06:43:26;-8.60;99.90
3528;DHT22;1778;47.966;7.854;2022-12-18T06:44:27;-8.60;99.90
3528;DHT22;1778;47.966;7.854;2022-12-18T06:45:29;-8.70;99.90
3528;DHT22;1778;47.966;7.854;2022-12-18T06:46:31;-8.70;99.90
3528;DHT22;1778;47.966;7.854;2022-12-18T06:47:34;-8.60;99.90
3528;DHT22;1778;47.966;7.854;2022-12-18T06:48:35;-8.70;99.90
3528;DHT22;1778;47.966;7.854;2022-12-18T06:49:37;-8.70;99.90
3528;DHT22;1778;47.966;7.854;2022-12-18T06:50:42;-8.80;99.90
3528;DHT22;1778;47.966;7.854;2022-12-18T06:51:43;-8.80;99.90
3528;DHT22;1778;47.966;7.854;2022-12-18T06:52:46;-8.80;99.90
3528;DHT22;1778;47.966;7.854;2022-12-18T06:53:47;-8.80;99.90
3528;DHT22;1778;47.966;7.854;2022-12-18T06:54:49;-8.70;99.90
3528;DHT22;1778;47.966;7.854;2022-12-18T06:55:50;-8.80;99.90
3528;DHT22;1778;47.966;7.854;2022-12-18T06:56:52;-8.80;99.90
3528;DHT22;1778;47.966;7.854;2022-12-18T06:57:55;-8.80;99.90
3528;DHT22;1778;47.966;7.854;2022-12-18T06:58:57;-8.90;99.90
3528;DHT22;1778;47.966;7.854;2022-12-18T06:59:59;-8.90;99.90
3528;DHT22;1778;47.966;7.854;2022-12-18T07:01:05;-8.80;99.90
3528;DHT22;1778;47.966;7.854;2022-12-18T07:02:11;-8.80;99.90
3528;DHT22;1778;47.966;7.854;2022-12-18T07:03:14;-8.80;99.90
3528;DHT22;1778;47.966;7.854;2022-12-18T07:04:15;-8.80;99.90
3528;DHT22;1778;47.966;7.854;2022-12-18T07:05:17;-8.70;99.90
3528;DHT22;1778;47.966;7.854;2022-12-18T07:06:20;-8.70;99.90
3528;DHT22;1778;47.966;7.854;2022-12-18T07:07:22;-8.80;99.90
3528;DHT22;1778;47.966;7.854;2022-12-18T07:08:24;-8.90;99.90
3528;DHT22;1778;47.966;7.854;2022-12-18T07:09:26;-8.90;99.90
3528;DHT22;1778;47.966;7.854;2022-12-18T07:10:30;-8.80;99.90
3528;DHT22;1778;47.966;7.854;2022-12-18T07:11:34;-8.80;99.90
3528;DHT22;1778;47.966;7.854;2022-12-18T07:12:36;-8.80;99.90
3528;DHT22;1778;47.966;7.854;2022-12-18T07:13:38;-8.80;99.90
3528;DHT22;1778;47.966;7.854;2022-12-18T07:14:40;-8.80;99.90
3528;DHT22;1778;47.966;7.854;2022-12-18T07:15:43;-8.80;99.90
3528;DHT22;1778;47.966;7.854;2022-12-18T07:16:45;-8.80;99.90
3528;DHT22;1778;47.966;7.854;2022-12-18T07:17:47;-8.80;99.90
3528;DHT22;1778;47.966;7.854;2022-12-18T07:18:49;-8.80;99.90
3528;DHT22;1778;47.966;7.854;2022-12-18T07:19:50;-8.80;99.90
3528;DHT22;1778;47.966;7.854;2022-12-18T07:20:52;-8.80;99.90
3528;DHT22;1778;47.966;7.854;2022-12-18T07:21:53;-8.70;99.90
3528;DHT22;1778;47.966;7.854;2022-12-18T07:22:55;-8.70;99.90
3528;DHT22;1778;47.966;7.854;2022-12-18T07:23:57;-8.70;99.90
3528;DHT22;1778;47.966;7.854;2022-12-18T07:24:58;-8.80;99.90
3528;DHT22;1778;47.966;7.854;2022-12-18T07:26:05;-8.80;99.90
3528;DHT22;1778;47.966;7.854;2022-12-18T07:27:06;-8.80;99.90
3528;DHT22;1778;47.966;7.854;2022-12-18T07:28:09;-8.80;99.90